.
WxDataArchive / Data Records for 2009-02-09
2009-02-08 February 2009 2009-02-10

Data Records for Monday, 09 February 2009

Time	Temp	Chill	HIndex	Humid	Dewpt	 Wind 	HiWind	WindDir	Rain 	Barom 
-----	----	-----	------	-----	-----	------	------	-------	-----	----- 
00:00	25.0	25.0	25.0	90	22.5	0	0	---	0.00	30.378 
00:05	24.8	24.8	24.8	90	22.3	0	0	---	0.00	30.376 
00:10	24.7	24.7	24.7	90	22.2	0	0	---	0.00	30.384 
00:15	24.5	24.5	24.5	90	22.0	0	0	---	0.00	30.383 
00:20	24.4	24.4	24.4	90	21.9	0	0	---	0.00	30.384 
00:25	24.1	24.1	24.1	90	21.6	0	0	---	0.00	30.382 
00:30	23.9	23.9	23.9	90	21.4	0	0	---	0.00	30.378 
00:35	23.8	23.8	23.8	90	21.3	0	0	---	0.00	30.380 
00:40	23.6	23.6	23.6	90	21.1	0	0	---	0.00	30.377 
00:45	23.5	23.5	23.5	90	21.0	0	0	---	0.00	30.378 
00:50	23.5	23.5	23.5	90	21.0	0	0	---	0.00	30.379 
00:55	23.3	23.3	23.3	90	20.8	0	0	---	0.00	30.379 
01:00	23.3	23.3	23.3	90	20.8	0	0	---	0.00	30.383 
01:05	23.2	23.2	23.2	90	20.7	0	0	---	0.00	30.384 
01:10	23.0	23.0	23.0	90	20.5	0	0	---	0.00	30.384 
01:15	23.0	23.0	23.0	91	20.8	0	0	---	0.00	30.383 
01:20	22.9	22.9	22.9	91	20.7	0	0	---	0.00	30.386 
01:25	22.9	22.9	22.9	91	20.7	0	0	---	0.00	30.386 
01:30	23.0	23.0	23.0	91	20.8	0	0	---	0.00	30.385 
01:35	22.9	22.9	22.9	91	20.7	0	0	---	0.00	30.385 
01:40	22.9	22.9	22.9	91	20.7	0	0	---	0.00	30.384 
01:45	22.9	22.9	22.9	91	20.7	0	0	---	0.00	30.382 
01:50	22.7	22.7	22.7	91	20.5	0	0	---	0.00	30.382 
01:55	22.5	22.5	22.5	91	20.3	0	0	---	0.00	30.379 
02:00	22.5	22.5	22.5	91	20.3	0	0	---	0.00	30.382 
02:05	22.4	22.4	22.4	91	20.2	0	0	---	0.00	30.385 
02:10	22.2	22.2	22.2	91	20.0	0	0	---	0.00	30.384 
02:15	22.2	22.2	22.2	91	20.0	0	0	---	0.00	30.385 
02:20	22.2	22.2	22.2	91	20.0	0	0	---	0.00	30.387 
02:25	22.4	22.4	22.4	91	20.2	0	0	---	0.00	30.388 
02:30	22.4	22.4	22.4	91	20.2	0	0	---	0.00	30.388 
02:35	22.4	22.4	22.4	91	20.2	0	0	---	0.00	30.385 
02:40	22.2	22.2	22.2	91	20.0	0	0	---	0.00	30.384 
02:45	22.2	22.2	22.2	91	20.0	0	0	---	0.00	30.384 
02:50	22.1	22.1	22.1	91	19.9	0	0	---	0.00	30.386 
02:55	22.1	22.1	22.1	91	19.9	0	0	---	0.00	30.384 
03:00	21.9	21.9	21.9	91	19.7	0	0	---	0.00	30.388 
03:05	21.9	21.9	21.9	91	19.7	0	0	---	0.00	30.387 
03:10	21.8	21.8	21.8	91	19.6	0	0	---	0.00	30.387 
03:15	21.8	21.8	21.8	92	19.8	0	0	---	0.00	30.387 
03:20	21.8	21.8	21.8	92	19.8	0	0	---	0.00	30.389 
03:25	21.8	21.8	21.8	92	19.8	0	0	---	0.00	30.388 
03:30	21.8	21.8	21.8	92	19.8	0	0	---	0.00	30.389 
03:35	21.6	21.6	21.6	92	19.6	0	0	---	0.00	30.386 
03:40	21.6	21.6	21.6	92	19.6	0	0	---	0.00	30.382 
03:45	21.6	21.6	21.6	92	19.6	0	0	---	0.00	30.386 
03:50	21.6	21.6	21.6	92	19.6	0	0	---	0.00	30.386 
03:55	21.6	21.6	21.6	92	19.6	0	0	---	0.00	30.381 
04:00	21.6	21.6	21.6	92	19.6	0	0	---	0.00	30.378 
04:05	21.6	21.6	21.6	92	19.6	0	0	---	0.00	30.379 
04:10	21.6	21.6	21.6	92	19.6	0	0	---	0.00	30.378 
04:15	21.6	21.6	21.6	92	19.6	0	0	---	0.00	30.376 
04:20	21.6	21.6	21.6	92	19.6	0	0	---	0.00	30.377 
04:25	21.4	21.4	21.4	92	19.4	0	0	---	0.00	30.378 
04:30	21.4	21.4	21.4	92	19.4	0	0	---	0.00	30.378 
04:35	21.4	21.4	21.4	92	19.4	0	0	---	0.00	30.376 
04:40	21.4	21.4	21.4	92	19.4	0	0	---	0.00	30.375 
04:45	21.4	21.4	21.4	92	19.4	0	0	---	0.00	30.374 
04:50	21.3	21.3	21.3	92	19.3	0	0	---	0.00	30.374 
04:55	21.4	21.4	21.4	92	19.4	0	0	---	0.00	30.374 
05:00	21.8	21.8	21.8	92	19.8	0	0	---	0.00	30.367 
05:05	22.2	22.2	22.2	93	20.5	0	0	---	0.00	30.370 
05:10	22.7	22.7	22.7	93	21.0	0	0	---	0.00	30.367 
05:15	23.6	23.6	23.6	94	22.1	0	2	225	0.00	30.360 
05:20	24.8	24.8	24.8	94	23.3	0	2	225	0.00	30.360 
05:25	25.4	25.4	25.4	94	23.9	0	1	135	0.00	30.360 
05:30	25.6	25.6	25.6	94	24.1	0	0	---	0.00	30.360 
05:35	25.6	25.6	25.6	93	23.9	0	0	---	0.00	30.358 
05:40	25.4	25.4	25.4	93	23.7	0	0	---	0.00	30.360 
05:45	25.3	25.3	25.3	93	23.6	0	0	---	0.00	30.358 
05:50	25.0	25.0	25.0	93	23.3	0	0	---	0.00	30.358 
05:55	24.7	24.7	24.7	93	23.0	0	0	---	0.00	30.355 
06:00	24.4	24.4	24.4	93	22.7	0	0	---	0.00	30.348 
06:05	24.7	24.7	24.7	93	23.0	0	0	---	0.00	30.351 
06:10	24.8	24.8	24.8	94	23.3	0	1	135	0.00	30.344 
06:15	25.1	25.1	25.1	94	23.6	0	0	---	0.00	30.344 
06:20	25.3	25.3	25.3	94	23.8	0	1	135	0.00	30.345 
06:25	25.3	25.3	25.3	94	23.8	0	1	135	0.00	30.343 
06:30	25.6	25.6	25.6	94	24.1	0	1	135	0.00	30.342 
06:35	25.7	25.7	25.7	94	24.2	0	0	---	0.00	30.344 
06:40	26.0	26.0	26.0	94	24.5	0	1	135	0.00	30.349 
06:45	26.1	26.1	26.1	94	24.6	0	1	135	0.00	30.351 
06:50	26.1	26.1	26.1	94	24.6	0	0	---	0.00	30.356 
06:55	26.1	26.1	26.1	94	24.6	0	0	---	0.00	30.357 
07:00	26.0	26.0	26.0	94	24.5	0	0	---	0.00	30.352 
07:05	25.8	25.8	25.8	94	24.3	0	0	---	0.00	30.353 
07:10	25.8	25.8	25.8	94	24.3	0	0	---	0.00	30.352 
07:15	25.7	25.7	25.7	94	24.2	0	0	---	0.00	30.353 
07:20	25.7	25.7	25.7	94	24.2	0	1	135	0.00	30.356 
07:25	25.8	25.8	25.8	94	24.3	0	0	---	0.00	30.358 
07:30	26.0	26.0	26.0	94	24.5	0	0	---	0.00	30.360 
07:35	26.1	26.1	26.1	94	24.6	0	0	---	0.00	30.363 
07:40	26.3	26.3	26.3	94	24.8	0	0	---	0.00	30.367 
07:45	26.3	26.3	26.3	94	24.8	0	0	---	0.00	30.373 
07:50	26.1	26.1	26.1	94	24.6	0	0	---	0.00	30.376 
07:55	26.1	26.1	26.1	94	24.6	0	0	---	0.00	30.374 
08:00	26.0	26.0	26.0	94	24.5	0	0	---	0.00	30.374 
08:05	26.0	26.0	26.0	94	24.5	0	0	---	0.00	30.374 
08:10	26.1	26.1	26.1	94	24.6	0	0	---	0.00	30.375 
08:15	26.1	26.1	26.1	94	24.6	0	0	---	0.00	30.374 
08:20	26.4	26.4	26.4	94	24.9	0	1	135	0.00	30.373 
08:25	26.7	26.7	26.7	94	25.2	0	0	---	0.00	30.373 
08:30	27.2	27.2	27.2	95	26.0	0	1	135	0.00	30.371 
08:35	27.6	27.6	27.6	95	26.4	0	2	135	0.00	30.369 
08:40	28.2	28.2	28.2	95	27.0	1	2	135	0.00	30.366 
08:45	28.7	28.7	28.7	95	27.5	1	3	112	0.00	30.364 
08:50	29.0	29.0	29.0	95	27.8	1	3	68	0.00	30.369 
08:55	29.3	29.3	29.3	95	28.0	1	3	68	0.00	30.369 
09:00	29.5	29.5	29.5	95	28.2	1	3	68	0.00	30.366 
09:05	29.8	29.8	29.8	95	28.5	1	4	68	0.00	30.368 
09:10	30.1	30.1	30.1	95	28.8	1	3	112	0.00	30.361 
09:15	30.4	30.4	30.4	95	29.1	2	5	90	0.00	30.356 
09:20	30.7	30.7	30.7	95	29.4	2	3	112	0.00	30.358 
09:25	30.7	30.7	30.7	95	29.4	1	4	112	0.00	30.358 
09:30	31.0	31.0	31.0	95	29.7	1	3	112	0.00	30.358 
09:35	31.2	31.2	31.2	95	29.9	2	5	112	0.00	30.357 
09:40	31.3	31.3	31.3	95	30.0	2	5	90	0.00	30.358 
09:45	31.5	31.5	31.5	95	30.2	1	3	90	0.00	30.359 
09:50	31.6	31.6	31.6	95	30.3	1	4	90	0.00	30.360 
09:55	31.8	31.8	31.8	95	30.5	1	3	112	0.00	30.363 
10:00	31.9	31.9	31.9	95	30.6	1	3	112	0.00	30.358 
10:05	31.9	31.9	31.9	95	30.6	1	3	135	0.00	30.361 
10:10	32.1	32.1	32.1	95	30.8	1	4	112	0.00	30.361 
10:15	32.2	32.2	32.2	94	30.7	1	2	112	0.00	30.359 
10:20	32.4	32.4	32.4	94	30.9	1	4	112	0.00	30.355 
10:25	32.5	32.5	32.5	94	31.0	1	5	112	0.00	30.357 
10:30	32.8	32.8	32.8	94	31.3	1	4	112	0.00	30.358 
10:35	32.9	32.9	32.9	94	31.4	2	4	112	0.00	30.348 
10:40	33.2	33.2	33.2	94	31.7	2	6	112	0.00	30.347 
10:45	33.4	33.4	33.4	94	31.9	2	5	112	0.00	30.343 
10:50	33.5	33.5	33.5	93	31.7	2	5	112	0.00	30.341 
10:55	33.7	33.7	33.7	93	31.9	2	4	112	0.00	30.339 
11:00	34.0	34.0	34.0	93	32.2	2	5	112	0.00	30.332 
11:05	34.3	34.3	34.3	92	32.2	2	9	112	0.00	30.332 
11:10	34.6	34.6	34.6	92	32.5	2	5	112	0.00	30.336 
11:15	34.9	34.9	34.9	92	32.8	3	5	112	0.00	30.327 
11:20	35.2	35.2	35.2	91	32.8	3	6	112	0.00	30.326 
11:25	35.5	35.5	35.5	90	32.9	2	6	90	0.00	30.327 
11:30	35.8	35.8	35.8	90	33.2	2	5	112	0.00	30.325 
11:35	35.9	35.9	35.9	89	33.0	2	4	90	0.00	30.324 
11:40	36.0	32.7	36.0	88	32.8	4	7	112	0.00	30.320 
11:45	36.0	36.0	36.0	88	32.8	3	6	112	0.00	30.312 
11:50	36.0	32.7	36.0	88	32.8	4	9	90	0.00	30.311 
11:55	36.2	36.2	36.2	88	33.0	3	7	112	0.00	30.310 
12:00	36.3	36.3	36.3	87	32.8	3	9	112	0.00	30.310 
12:05	36.5	36.5	36.5	87	33.0	1	5	112	0.00	30.313 
12:10	36.9	36.9	36.9	87	33.4	2	4	112	0.00	30.321 
12:15	37.0	37.0	37.0	86	33.2	2	6	112	0.00	30.316 
12:20	37.2	37.2	37.2	86	33.4	2	5	112	0.00	30.313 
12:25	37.5	37.5	37.5	86	33.7	2	5	112	0.00	30.310 
12:30	37.9	37.9	37.9	85	33.8	2	7	90	0.00	30.311 
12:35	38.2	38.2	38.2	85	34.1	1	4	90	0.00	30.310 
12:40	38.3	38.3	38.3	84	33.9	2	5	112	0.00	30.308 
12:45	38.6	38.6	38.6	84	34.2	2	6	112	0.00	30.294 
12:50	38.9	38.9	38.9	83	34.2	3	6	112	0.00	30.290 
12:55	39.1	39.1	39.1	83	34.4	3	7	112	0.00	30.282 
13:00	39.3	39.3	39.3	83	34.6	3	6	90	0.00	30.278 
13:05	39.8	39.8	39.8	83	35.1	2	6	112	0.00	30.276 
13:10	40.2	40.2	40.2	82	35.2	3	6	112	0.00	30.274 
13:15	40.3	40.3	40.3	82	35.2	3	7	112	0.00	30.272 
13:20	40.6	40.6	40.6	82	35.5	2	6	90	0.00	30.267 
13:25	40.9	40.9	40.9	81	35.5	1	4	90	0.00	30.264 
13:30	41.2	41.2	41.2	81	35.8	2	6	90	0.00	30.264 
13:35	41.6	41.6	41.6	81	36.2	2	4	112	0.00	30.259 
13:40	41.8	41.8	41.8	80	36.1	2	6	112	0.00	30.254 
13:45	42.1	42.1	42.1	80	36.4	3	6	112	0.00	30.246 
13:50	42.2	42.2	42.2	81	36.8	2	4	90	0.00	30.243 
13:55	42.3	42.3	42.3	80	36.6	3	5	90	0.00	30.242 
14:00	42.2	39.9	42.2	80	36.5	4	6	112	0.00	30.235 
14:05	42.2	39.9	42.2	81	36.8	4	7	90	0.00	30.230 
14:10	42.1	42.1	42.1	81	36.7	3	6	90	0.00	30.228 
14:15	42.1	42.1	42.1	81	36.7	3	7	90	0.00	30.225 
14:20	42.1	42.1	42.1	81	36.7	3	6	112	0.00	30.223 
14:25	42.1	42.1	42.1	81	36.7	3	7	112	0.00	30.214 
14:30	42.2	42.2	42.2	81	36.8	2	9	112	0.00	30.209 
14:35	42.2	42.2	42.2	81	36.8	3	6	112	0.00	30.206 
14:40	42.2	39.9	42.2	81	36.8	4	7	112	0.00	30.196 
14:45	42.2	42.2	42.2	82	37.1	3	7	112	0.00	30.194 
14:50	42.3	40.0	42.3	82	37.2	4	6	112	0.00	30.192 
14:55	42.2	42.2	42.2	82	37.1	3	6	112	0.00	30.187 
15:00	42.2	42.2	42.2	83	37.4	3	6	112	0.00	30.181 
15:05	42.2	39.9	42.2	83	37.4	4	7	90	0.00	30.180 
15:10	42.2	42.2	42.2	83	37.4	3	10	90	0.00	30.179 
15:15	42.3	42.3	42.3	83	37.5	3	7	90	0.00	30.177 
15:20	42.5	40.2	42.5	83	37.7	4	7	90	0.00	30.174 
15:25	42.8	42.8	42.8	83	38.0	3	7	112	0.00	30.169 
15:30	42.9	42.9	42.9	83	38.1	3	8	112	0.00	30.166 
15:35	43.2	41.0	43.2	83	38.4	4	6	112	0.00	30.164 
15:40	43.5	43.5	43.5	83	38.7	3	6	90	0.00	30.159 
15:45	43.6	41.5	43.6	82	38.5	4	7	112	0.00	30.155 
15:50	43.8	43.8	43.8	82	38.7	3	7	90	0.00	30.153 
15:55	44.1	44.1	44.1	81	38.6	3	6	112	0.00	30.152 
16:00	44.1	42.1	44.1	81	38.6	4	8	112	0.00	30.149 
16:05	44.1	42.1	44.1	81	38.6	4	9	112	0.00	30.148 
16:10	44.2	42.2	44.2	81	38.7	4	9	90	0.00	30.146 
16:15	44.2	41.4	44.2	81	38.7	5	10	112	0.00	30.142 
16:20	44.3	41.5	44.3	81	38.8	5	10	112	0.00	30.138 
16:25	44.5	42.5	44.5	82	39.4	4	7	90	0.00	30.133 
16:30	44.5	41.8	44.5	81	39.0	5	9	90	0.00	30.131 
16:35	44.6	42.6	44.6	81	39.1	4	7	112	0.00	30.130 
16:40	44.8	42.9	44.8	81	39.3	4	9	112	0.00	30.127 
16:45	44.9	42.2	44.9	81	39.4	5	10	90	0.00	30.125 
16:50	44.9	44.9	44.9	81	39.4	3	6	90	0.00	30.118 
16:55	44.8	44.8	44.8	81	39.3	3	7	90	0.00	30.117 
17:00	44.8	42.9	44.8	81	39.3	4	7	112	0.00	30.116 
17:05	44.6	44.6	44.6	82	39.4	3	5	90	0.00	30.114 
17:10	44.6	44.6	44.6	82	39.4	3	7	90	0.00	30.112 
17:15	44.8	44.8	44.8	82	39.6	3	5	90	0.00	30.112 
17:20	44.8	44.8	44.8	82	39.6	2	5	112	0.00	30.110 
17:25	44.6	44.6	44.6	82	39.4	2	5	112	0.00	30.110 
17:30	44.6	44.6	44.6	82	39.4	3	6	112	0.00	30.104 
17:35	44.5	44.5	44.5	82	39.4	2	6	90	0.00	30.101 
17:40	44.3	44.3	44.3	83	39.5	2	5	112	0.00	30.100 
17:45	44.2	44.2	44.2	83	39.4	3	5	112	0.00	30.098 
17:50	44.1	44.1	44.1	83	39.3	2	6	112	0.00	30.097 
17:55	43.9	43.9	43.9	83	39.1	2	6	90	0.00	30.098 
18:00	43.6	43.6	43.6	83	38.8	2	4	112	0.00	30.097 
18:05	43.3	43.3	43.3	83	38.5	2	5	90	0.00	30.094 
18:10	42.9	42.9	42.9	84	38.4	2	4	112	0.00	30.094 
18:15	42.3	42.3	42.3	85	38.1	2	5	90	0.00	30.083 
18:20	41.9	41.9	41.9	86	38.0	2	5	90	0.00	30.082 
18:25	41.6	41.6	41.6	87	38.0	2	6	112	0.00	30.082 
18:30	41.5	41.5	41.5	87	37.9	2	6	112	0.00	30.082 
18:35	41.2	41.2	41.2	88	37.9	2	5	90	0.00	30.083 
18:40	41.1	41.1	41.1	88	37.8	2	5	90	0.00	30.082 
18:45	40.9	40.9	40.9	88	37.6	3	6	112	0.00	30.071 
18:50	40.9	40.9	40.9	88	37.6	2	6	90	0.00	30.069 
18:55	41.1	41.1	41.1	88	37.8	2	4	112	0.00	30.068 
19:00	41.1	41.1	41.1	88	37.8	2	6	112	0.00	30.067 
19:05	41.2	41.2	41.2	88	37.9	2	7	68	0.00	30.070 
19:10	41.2	41.2	41.2	88	37.9	2	4	90	0.00	30.067 
19:15	41.1	41.1	41.1	88	37.8	2	5	90	0.00	30.064 
19:20	40.9	40.9	40.9	88	37.6	2	4	90	0.00	30.063 
19:25	40.8	40.8	40.8	88	37.5	2	4	90	0.00	30.056 
19:30	40.6	40.6	40.6	88	37.3	2	4	112	0.00	30.052 
19:35	40.3	40.3	40.3	88	37.0	3	6	112	0.00	30.046 
19:40	40.3	40.3	40.3	89	37.3	2	4	112	0.00	30.044 
19:45	40.2	40.2	40.2	89	37.2	2	5	112	0.00	30.034 
19:50	40.2	40.2	40.2	89	37.2	2	5	112	0.00	30.033 
19:55	40.3	40.3	40.3	89	37.3	1	5	112	0.00	30.035 
20:00	40.3	40.3	40.3	89	37.3	1	3	112	0.00	30.036 
20:05	40.5	40.5	40.5	89	37.5	0	2	112	0.00	30.034 
20:10	40.3	40.3	40.3	89	37.3	0	1	112	0.00	30.036 
20:15	40.3	40.3	40.3	90	37.6	0	2	112	0.00	30.037 
20:20	40.5	40.5	40.5	90	37.8	1	2	112	0.00	30.036 
20:25	40.6	40.6	40.6	90	37.9	1	3	90	0.00	30.033 
20:30	40.6	40.6	40.6	90	37.9	2	4	90	0.00	30.028 
20:35	40.6	40.6	40.6	90	37.9	2	4	135	0.00	30.024 
20:40	40.6	40.6	40.6	90	37.9	1	3	112	0.00	30.027 
20:45	40.6	40.6	40.6	90	37.9	1	3	112	0.00	30.027 
20:50	40.6	40.6	40.6	90	37.9	1	3	112	0.00	30.026 
20:55	40.5	40.5	40.5	90	37.8	1	4	112	0.00	30.032 
21:00	40.3	40.3	40.3	90	37.6	0	1	112	0.00	30.033 
21:05	40.2	40.2	40.2	90	37.5	0	1	112	0.00	30.032 
21:10	40.1	40.1	40.1	90	37.4	0	1	112	0.00	30.033 
21:15	39.9	39.9	39.9	91	37.5	0	1	112	0.00	30.032 
21:20	39.9	39.9	39.9	91	37.5	0	1	112	0.00	30.031 
21:25	39.8	39.8	39.8	91	37.4	0	1	112	0.00	30.030 
21:30	39.6	39.6	39.6	91	37.2	0	1	112	0.00	30.029 
21:35	39.6	39.6	39.6	92	37.5	0	1	112	0.00	30.027 
21:40	39.6	39.6	39.6	92	37.5	0	2	112	0.00	30.019 
21:45	39.5	39.5	39.5	92	37.4	0	2	112	0.00	30.015 
21:50	39.5	39.5	39.5	92	37.4	0	2	112	0.00	30.014 
21:55	39.6	39.6	39.6	92	37.5	1	3	112	0.00	30.012 
22:00	39.9	39.9	39.9	92	37.8	0	2	112	0.00	30.010 
22:05	39.9	39.9	39.9	92	37.8	0	1	112	0.00	30.000 
22:10	40.1	40.1	40.1	92	38.0	0	2	112	0.00	29.998 
22:15	40.2	40.2	40.2	93	38.3	0	1	112	0.00	29.998 
22:20	40.3	40.3	40.3	93	38.4	0	2	112	0.00	29.997 
22:25	40.6	40.6	40.6	93	38.7	0	2	112	0.00	29.992 
22:30	40.9	40.9	40.9	93	39.0	1	3	135	0.00	29.990 
22:35	41.5	41.5	41.5	93	39.6	1	2	135	0.00	29.995 
22:40	41.9	41.9	41.9	92	39.7	1	2	112	0.00	29.993 
22:45	42.3	42.3	42.3	92	40.1	1	3	90	0.00	29.993 
22:50	42.9	42.9	42.9	92	40.7	1	3	135	0.00	29.992 
22:55	43.3	43.3	43.3	91	40.9	1	3	112	0.00	29.988 
23:00	43.8	43.8	43.8	90	41.1	1	4	112	0.00	29.982 
23:05	44.1	44.1	44.1	89	41.1	1	2	90	0.00	29.987 
23:10	44.3	44.3	44.3	88	41.0	1	3	112	0.00	29.987 
23:15	44.6	44.6	44.6	87	41.0	1	4	112	0.00	29.989 
23:20	44.9	44.9	44.9	87	41.3	1	3	135	0.00	29.987 
23:25	45.1	45.1	45.1	86	41.2	1	3	68	0.00	29.987 
23:30	45.4	45.4	45.4	86	41.5	0	2	112	0.00	29.991 
23:35	45.4	45.4	45.4	86	41.5	0	2	112	0.00	30.003 
23:40	45.5	45.5	45.5	87	41.9	0	1	112	0.02	30.005 
23:45	45.5	45.5	45.5	88	42.2	1	3	248	0.01	29.993 
23:50	45.8	45.8	45.8	89	42.7	1	3	270	0.00	29.990 
23:55	45.8	45.8	45.8	89	42.7	0	2	270	0.01	29.988 

CoCoRaHS
IN-AL-39
A2 Web Hosting
Creative Commons License
GoDaddy
search engine by freefind advanced

loaded 2018-11-15 05:35:42 • last modified 2010-11-18 10:43:29
Privacy PolicyDisclaimer
• wx.awcolley.com is powered by PmWiki v.2002016 •
• all content (unless otherwise noted) © 2018 A W Colley